sensor_id;sensor_type;location;lat;lon;timestamp;P1;durP1;ratioP1;P2;durP2;ratioP2
11839;SDS011;5979;50.800;4.904;2022-09-12T00:00:25;8.57;;;7.88;;
11839;SDS011;5979;50.800;4.904;2022-09-12T00:02:54;8.30;;;7.60;;
11839;SDS011;5979;50.800;4.904;2022-09-12T00:05:20;7.45;;;6.82;;
11839;SDS011;5979;50.800;4.904;2022-09-12T00:07:46;6.65;;;5.90;;
11839;SDS011;5979;50.800;4.904;2022-09-12T00:10:12;6.82;;;6.32;;
11839;SDS011;5979;50.800;4.904;2022-09-12T00:12:38;6.82;;;6.13;;
11839;SDS011;5979;50.800;4.904;2022-09-12T00:15:04;7.45;;;6.72;;
11839;SDS011;5979;50.800;4.904;2022-09-12T00:17:33;6.40;;;5.90;;
11839;SDS011;5979;50.800;4.904;2022-09-12T00:19:59;6.55;;;5.95;;
11839;SDS011;5979;50.800;4.904;2022-09-12T00:22:24;6.82;;;6.22;;
11839;SDS011;5979;50.800;4.904;2022-09-12T00:24:50;7.45;;;6.78;;
11839;SDS011;5979;50.800;4.904;2022-09-12T00:27:16;7.50;;;6.78;;
11839;SDS011;5979;50.800;4.904;2022-09-12T00:29:41;6.28;;;5.68;;
11839;SDS011;5979;50.800;4.904;2022-09-12T00:32:07;9.30;;;6.43;;
11839;SDS011;5979;50.800;4.904;2022-09-12T00:34:33;8.18;;;6.75;;
11839;SDS011;5979;50.800;4.904;2022-09-12T00:36:58;6.53;;;5.95;;
11839;SDS011;5979;50.800;4.904;2022-09-12T00:39:24;5.85;;;5.38;;
11839;SDS011;5979;50.800;4.904;2022-09-12T00:41:49;5.85;;;5.32;;
11839;SDS011;5979;50.800;4.904;2022-09-12T00:49:23;6.22;;;5.82;;
11839;SDS011;5979;50.800;4.904;2022-09-12T00:52:17;5.60;;;5.22;;
11839;SDS011;5979;50.800;4.904;2022-09-12T00:55:02;6.43;;;5.80;;
11839;SDS011;5979;50.800;4.904;2022-09-12T00:57:41;7.75;;;6.60;;
11839;SDS011;5979;50.800;4.904;2022-09-12T01:00:17;5.90;;;5.30;;
11839;SDS011;5979;50.800;4.904;2022-09-12T01:02:46;5.55;;;5.15;;
11839;SDS011;5979;50.800;4.904;2022-09-12T01:05:15;5.32;;;4.93;;
11839;SDS011;5979;50.800;4.904;2022-09-12T01:07:43;5.65;;;5.13;;
11839;SDS011;5979;50.800;4.904;2022-09-12T01:10:12;7.10;;;5.75;;
11839;SDS011;5979;50.800;4.904;2022-09-12T01:12:39;6.70;;;6.10;;
11839;SDS011;5979;50.800;4.904;2022-09-12T01:15:06;8.43;;;6.20;;
11839;SDS011;5979;50.800;4.904;2022-09-12T01:17:39;5.90;;;5.00;;
11839;SDS011;5979;50.800;4.904;2022-09-12T01:33:56;7.20;;;6.50;;
11839;SDS011;5979;50.800;4.904;2022-09-12T01:36:58;7.38;;;6.57;;
11839;SDS011;5979;50.800;4.904;2022-09-12T01:42:09;6.90;;;6.15;;
11839;SDS011;5979;50.800;4.904;2022-09-12T01:47:45;10.15;;;6.00;;
11839;SDS011;5979;50.800;4.904;2022-09-12T01:50:26;7.88;;;5.50;;
11839;SDS011;5979;50.800;4.904;2022-09-12T01:53:12;12.95;;;6.38;;
11839;SDS011;5979;50.800;4.904;2022-09-12T01:55:57;20.05;;;6.93;;
11839;SDS011;5979;50.800;4.904;2022-09-12T01:58:32;10.85;;;5.95;;
11839;SDS011;5979;50.800;4.904;2022-09-12T02:01:15;8.88;;;6.40;;
11839;SDS011;5979;50.800;4.904;2022-09-12T02:03:53;6.85;;;5.70;;
11839;SDS011;5979;50.800;4.904;2022-09-12T02:06:25;11.38;;;7.15;;
11839;SDS011;5979;50.800;4.904;2022-09-12T02:09:05;8.30;;;6.05;;
11839;SDS011;5979;50.800;4.904;2022-09-12T02:11:37;9.13;;;6.10;;
11839;SDS011;5979;50.800;4.904;2022-09-12T02:14:11;15.32;;;6.32;;
11839;SDS011;5979;50.800;4.904;2022-09-12T02:17:01;12.57;;;5.93;;
11839;SDS011;5979;50.800;4.904;2022-09-12T02:19:41;11.48;;;6.30;;
11839;SDS011;5979;50.800;4.904;2022-09-12T02:22:11;10.50;;;6.25;;
11839;SDS011;5979;50.800;4.904;2022-09-12T02:24:41;7.97;;;4.90;;
11839;SDS011;5979;50.800;4.904;2022-09-12T02:27:13;6.45;;;5.95;;
11839;SDS011;5979;50.800;4.904;2022-09-12T02:29:42;8.85;;;7.20;;
11839;SDS011;5979;50.800;4.904;2022-09-12T02:34:53;6.57;;;6.07;;
11839;SDS011;5979;50.800;4.904;2022-09-12T02:37:47;8.45;;;7.20;;
11839;SDS011;5979;50.800;4.904;2022-09-12T02:40:28;8.15;;;6.45;;
11839;SDS011;5979;50.800;4.904;2022-09-12T02:42:55;6.32;;;5.78;;
11839;SDS011;5979;50.800;4.904;2022-09-12T02:45:21;9.10;;;5.43;;
11839;SDS011;5979;50.800;4.904;2022-09-12T02:47:48;8.50;;;5.72;;
11839;SDS011;5979;50.800;4.904;2022-09-12T02:50:18;10.05;;;5.53;;
11839;SDS011;5979;50.800;4.904;2022-09-12T02:52:44;10.50;;;5.85;;
11839;SDS011;5979;50.800;4.904;2022-09-12T02:55:11;8.10;;;5.63;;
11839;SDS011;5979;50.800;4.904;2022-09-12T02:57:37;6.45;;;5.35;;
11839;SDS011;5979;50.800;4.904;2022-09-12T03:00:04;6.38;;;5.30;;
11839;SDS011;5979;50.800;4.904;2022-09-12T03:05:36;5.75;;;5.10;;
11839;SDS011;5979;50.800;4.904;2022-09-12T03:13:38;7.13;;;4.82;;
11839;SDS011;5979;50.800;4.904;2022-09-12T03:16:27;10.88;;;6.60;;
11839;SDS011;5979;50.800;4.904;2022-09-12T03:22:21;7.45;;;6.75;;
11839;SDS011;5979;50.800;4.904;2022-09-12T03:24:50;9.50;;;7.13;;
11839;SDS011;5979;50.800;4.904;2022-09-12T03:27:38;7.07;;;6.38;;
11839;SDS011;5979;50.800;4.904;2022-09-12T03:30:08;8.00;;;6.22;;
11839;SDS011;5979;50.800;4.904;2022-09-12T03:33:10;8.48;;;5.75;;
11839;SDS011;5979;50.800;4.904;2022-09-12T03:35:28;6.63;;;5.80;;
11839;SDS011;5979;50.800;4.904;2022-09-12T03:37:54;5.82;;;5.13;;
11839;SDS011;5979;50.800;4.904;2022-09-12T03:40:19;7.07;;;5.65;;
11839;SDS011;5979;50.800;4.904;2022-09-12T03:42:45;6.20;;;5.70;;
11839;SDS011;5979;50.800;4.904;2022-09-12T03:45:11;8.80;;;5.60;;
11839;SDS011;5979;50.800;4.904;2022-09-12T03:47:36;5.47;;;4.95;;
11839;SDS011;5979;50.800;4.904;2022-09-12T03:50:03;7.07;;;5.30;;
11839;SDS011;5979;50.800;4.904;2022-09-12T03:52:30;10.10;;;6.53;;
11839;SDS011;5979;50.800;4.904;2022-09-12T03:54:56;6.07;;;5.57;;
11839;SDS011;5979;50.800;4.904;2022-09-12T03:57:22;5.47;;;4.55;;
11839;SDS011;5979;50.800;4.904;2022-09-12T03:59:48;7.28;;;6.35;;
11839;SDS011;5979;50.800;4.904;2022-09-12T04:02:14;9.93;;;6.70;;
11839;SDS011;5979;50.800;4.904;2022-09-12T04:04:40;10.10;;;7.40;;
11839;SDS011;5979;50.800;4.904;2022-09-12T04:07:07;7.53;;;5.88;;
11839;SDS011;5979;50.800;4.904;2022-09-12T04:09:36;11.65;;;7.60;;
11839;SDS011;5979;50.800;4.904;2022-09-12T04:12:02;10.32;;;7.68;;
11839;SDS011;5979;50.800;4.904;2022-09-12T04:14:28;8.82;;;6.78;;
11839;SDS011;5979;50.800;4.904;2022-09-12T04:16:53;9.95;;;6.60;;
11839;SDS011;5979;50.800;4.904;2022-09-12T04:19:19;7.85;;;6.05;;
11839;SDS011;5979;50.800;4.904;2022-09-12T04:21:45;11.40;;;9.48;;
11839;SDS011;5979;50.800;4.904;2022-09-12T04:24:10;6.53;;;5.95;;
11839;SDS011;5979;50.800;4.904;2022-09-12T04:26:36;10.75;;;6.63;;
11839;SDS011;5979;50.800;4.904;2022-09-12T04:29:02;8.15;;;7.45;;
11839;SDS011;5979;50.800;4.904;2022-09-12T04:31:28;10.07;;;6.47;;
11839;SDS011;5979;50.800;4.904;2022-09-12T04:33:54;6.60;;;5.80;;
11839;SDS011;5979;50.800;4.904;2022-09-12T04:36:24;6.68;;;5.97;;
11839;SDS011;5979;50.800;4.904;2022-09-12T04:38:52;6.10;;;5.60;;
11839;SDS011;5979;50.800;4.904;2022-09-12T04:41:22;8.88;;;6.45;;
11839;SDS011;5979;50.800;4.904;2022-09-12T04:43:53;7.32;;;6.03;;
11839;SDS011;5979;50.800;4.904;2022-09-12T04:46:22;7.75;;;6.20;;
11839;SDS011;5979;50.800;4.904;2022-09-12T04:48:49;7.70;;;5.28;;
11839;SDS011;5979;50.800;4.904;2022-09-12T04:51:16;6.25;;;5.43;;
11839;SDS011;5979;50.800;4.904;2022-09-12T04:53:47;8.00;;;6.00;;
11839;SDS011;5979;50.800;4.904;2022-09-12T04:56:14;6.20;;;5.65;;
11839;SDS011;5979;50.800;4.904;2022-09-12T04:58:40;7.75;;;4.68;;
11839;SDS011;5979;50.800;4.904;2022-09-12T05:01:16;6.13;;;4.40;;
11839;SDS011;5979;50.800;4.904;2022-09-12T05:03:44;6.25;;;5.57;;
11839;SDS011;5979;50.800;4.904;2022-09-12T05:06:13;5.63;;;4.93;;
11839;SDS011;5979;50.800;4.904;2022-09-12T05:08:40;5.93;;;5.13;;
11839;SDS011;5979;50.800;4.904;2022-09-12T05:11:07;6.13;;;5.18;;
11839;SDS011;5979;50.800;4.904;2022-09-12T05:13:36;6.60;;;6.10;;
11839;SDS011;5979;50.800;4.904;2022-09-12T05:16:02;5.60;;;4.65;;
11839;SDS011;5979;50.800;4.904;2022-09-12T05:18:32;8.20;;;5.97;;
11839;SDS011;5979;50.800;4.904;2022-09-12T05:20:59;8.20;;;6.22;;
11839;SDS011;5979;50.800;4.904;2022-09-12T05:23:27;8.43;;;5.82;;
11839;SDS011;5979;50.800;4.904;2022-09-12T05:25:53;7.47;;;6.00;;
11839;SDS011;5979;50.800;4.904;2022-09-12T05:28:22;7.50;;;6.30;;
11839;SDS011;5979;50.800;4.904;2022-09-12T05:30:58;7.15;;;6.55;;
11839;SDS011;5979;50.800;4.904;2022-09-12T05:33:25;6.20;;;5.70;;
11839;SDS011;5979;50.800;4.904;2022-09-12T05:35:51;8.70;;;6.20;;
11839;SDS011;5979;50.800;4.904;2022-09-12T05:38:17;7.38;;;6.18;;
11839;SDS011;5979;50.800;4.904;2022-09-12T05:40:42;7.47;;;5.90;;
11839;SDS011;5979;50.800;4.904;2022-09-12T05:43:08;6.78;;;5.30;;
11839;SDS011;5979;50.800;4.904;2022-09-12T05:45:36;5.07;;;4.72;;
11839;SDS011;5979;50.800;4.904;2022-09-12T05:48:02;6.38;;;5.32;;
11839;SDS011;5979;50.800;4.904;2022-09-12T05:50:28;7.25;;;6.60;;
11839;SDS011;5979;50.800;4.904;2022-09-12T05:52:54;7.78;;;7.15;;
11839;SDS011;5979;50.800;4.904;2022-09-12T05:55:20;8.02;;;7.03;;
11839;SDS011;5979;50.800;4.904;2022-09-12T05:57:47;7.30;;;6.70;;
11839;SDS011;5979;50.800;4.904;2022-09-12T06:00:12;7.47;;;6.75;;
11839;SDS011;5979;50.800;4.904;2022-09-12T06:02:39;7.60;;;6.88;;
11839;SDS011;5979;50.800;4.904;2022-09-12T06:05:05;7.20;;;6.60;;
11839;SDS011;5979;50.800;4.904;2022-09-12T06:07:31;7.05;;;6.35;;
11839;SDS011;5979;50.800;4.904;2022-09-12T06:09:57;7.13;;;5.82;;
11839;SDS011;5979;50.800;4.904;2022-09-12T06:12:23;6.10;;;5.60;;
11839;SDS011;5979;50.800;4.904;2022-09-12T06:14:50;7.68;;;6.82;;
11839;SDS011;5979;50.800;4.904;2022-09-12T06:17:16;6.93;;;6.28;;
11839;SDS011;5979;50.800;4.904;2022-09-12T06:19:43;6.53;;;5.88;;
11839;SDS011;5979;50.800;4.904;2022-09-12T06:22:09;8.13;;;6.68;;
11839;SDS011;5979;50.800;4.904;2022-09-12T06:24:35;6.72;;;6.22;;
11839;SDS011;5979;50.800;4.904;2022-09-12T06:27:01;8.43;;;6.53;;
11839;SDS011;5979;50.800;4.904;2022-09-12T06:29:27;10.13;;;6.80;;
11839;SDS011;5979;50.800;4.904;2022-09-12T06:31:53;8.38;;;7.45;;
11839;SDS011;5979;50.800;4.904;2022-09-12T06:34:18;9.23;;;7.80;;
11839;SDS011;5979;50.800;4.904;2022-09-12T06:36:45;9.00;;;6.40;;
11839;SDS011;5979;50.800;4.904;2022-09-12T06:39:12;7.00;;;5.93;;
11839;SDS011;5979;50.800;4.904;2022-09-12T06:41:43;7.85;;;7.20;;
11839;SDS011;5979;50.800;4.904;2022-09-12T06:44:11;7.10;;;6.50;;
11839;SDS011;5979;50.800;4.904;2022-09-12T06:46:40;7.45;;;6.85;;
11839;SDS011;5979;50.800;4.904;2022-09-12T06:49:06;9.43;;;7.55;;
11839;SDS011;5979;50.800;4.904;2022-09-12T06:51:32;7.72;;;7.03;;
11839;SDS011;5979;50.800;4.904;2022-09-12T06:53:58;7.95;;;7.15;;
11839;SDS011;5979;50.800;4.904;2022-09-12T06:56:25;7.82;;;7.15;;
11839;SDS011;5979;50.800;4.904;2022-09-12T06:58:52;8.50;;;7.78;;
11839;SDS011;5979;50.800;4.904;2022-09-12T07:01:20;7.85;;;7.13;;
11839;SDS011;5979;50.800;4.904;2022-09-12T07:03:51;9.07;;;8.27;;
11839;SDS011;5979;50.800;4.904;2022-09-12T07:06:22;7.82;;;7.22;;
11839;SDS011;5979;50.800;4.904;2022-09-12T07:08:53;8.30;;;7.60;;
11839;SDS011;5979;50.800;4.904;2022-09-12T07:11:20;9.10;;;7.57;;
11839;SDS011;5979;50.800;4.904;2022-09-12T07:13:48;7.40;;;6.90;;
11839;SDS011;5979;50.800;4.904;2022-09-12T07:16:15;6.10;;;5.70;;
11839;SDS011;5979;50.800;4.904;2022-09-12T07:18:42;7.38;;;6.78;;
11839;SDS011;5979;50.800;4.904;2022-09-12T07:21:14;6.35;;;5.85;;
11839;SDS011;5979;50.800;4.904;2022-09-12T07:23:40;6.47;;;6.07;;
11839;SDS011;5979;50.800;4.904;2022-09-12T07:26:06;7.20;;;6.53;;
11839;SDS011;5979;50.800;4.904;2022-09-12T07:28:34;6.93;;;6.38;;
11839;SDS011;5979;50.800;4.904;2022-09-12T07:31:04;5.80;;;5.30;;
11839;SDS011;5979;50.800;4.904;2022-09-12T07:33:35;5.80;;;5.30;;
11839;SDS011;5979;50.800;4.904;2022-09-12T07:36:01;6.22;;;5.63;;
11839;SDS011;5979;50.800;4.904;2022-09-12T07:38:28;6.57;;;5.97;;
11839;SDS011;5979;50.800;4.904;2022-09-12T07:40:54;6.70;;;6.18;;
11839;SDS011;5979;50.800;4.904;2022-09-12T07:43:19;6.22;;;5.63;;
11839;SDS011;5979;50.800;4.904;2022-09-12T07:45:45;5.50;;;5.05;;
11839;SDS011;5979;50.800;4.904;2022-09-12T07:48:11;6.03;;;5.53;;
11839;SDS011;5979;50.800;4.904;2022-09-12T07:50:38;6.60;;;6.07;;
11839;SDS011;5979;50.800;4.904;2022-09-12T07:53:04;7.05;;;6.20;;
11839;SDS011;5979;50.800;4.904;2022-09-12T07:55:30;5.70;;;5.30;;
11839;SDS011;5979;50.800;4.904;2022-09-12T07:57:56;6.15;;;5.55;;
11839;SDS011;5979;50.800;4.904;2022-09-12T08:00:22;7.43;;;6.78;;
11839;SDS011;5979;50.800;4.904;2022-09-12T08:02:51;7.95;;;6.72;;
11839;SDS011;5979;50.800;4.904;2022-09-12T08:05:18;6.20;;;5.70;;
11839;SDS011;5979;50.800;4.904;2022-09-12T08:07:47;7.13;;;6.43;;
11839;SDS011;5979;50.800;4.904;2022-09-12T08:10:13;6.32;;;5.78;;
11839;SDS011;5979;50.800;4.904;2022-09-12T08:12:40;6.60;;;6.00;;
11839;SDS011;5979;50.800;4.904;2022-09-12T08:15:05;6.57;;;6.07;;
11839;SDS011;5979;50.800;4.904;2022-09-12T08:17:32;6.32;;;5.72;;
11839;SDS011;5979;50.800;4.904;2022-09-12T08:19:58;7.18;;;6.57;;
11839;SDS011;5979;50.800;4.904;2022-09-12T08:22:23;7.28;;;6.53;;
11839;SDS011;5979;50.800;4.904;2022-09-12T08:24:49;5.78;;;5.38;;
11839;SDS011;5979;50.800;4.904;2022-09-12T08:27:15;5.90;;;5.40;;
11839;SDS011;5979;50.800;4.904;2022-09-12T08:29:41;8.23;;;6.78;;
11839;SDS011;5979;50.800;4.904;2022-09-12T08:32:07;6.78;;;6.28;;
11839;SDS011;5979;50.800;4.904;2022-09-12T08:34:32;6.30;;;5.80;;
11839;SDS011;5979;50.800;4.904;2022-09-12T08:36:58;6.15;;;5.68;;
11839;SDS011;5979;50.800;4.904;2022-09-12T08:39:24;6.88;;;6.45;;
11839;SDS011;5979;50.800;4.904;2022-09-12T08:41:55;6.38;;;5.88;;
11839;SDS011;5979;50.800;4.904;2022-09-12T08:47:24;6.80;;;6.20;;
11839;SDS011;5979;50.800;4.904;2022-09-12T08:52:46;6.00;;;5.60;;
11839;SDS011;5979;50.800;4.904;2022-09-12T08:58:01;6.53;;;6.03;;
11839;SDS011;5979;50.800;4.904;2022-09-12T09:04:04;6.22;;;5.00;;
11839;SDS011;5979;50.800;4.904;2022-09-12T09:06:57;6.32;;;5.55;;
11839;SDS011;5979;50.800;4.904;2022-09-12T09:12:22;4.78;;;4.40;;
11839;SDS011;5979;50.800;4.904;2022-09-12T09:15:02;4.07;;;3.88;;
11839;SDS011;5979;50.800;4.904;2022-09-12T09:17:42;4.22;;;4.03;;
11839;SDS011;5979;50.800;4.904;2022-09-12T09:26:04;3.25;;;3.05;;
11839;SDS011;5979;50.800;4.904;2022-09-12T09:30:55;2.83;;;2.72;;
11839;SDS011;5979;50.800;4.904;2022-09-12T09:33:22;2.80;;;2.70;;
11839;SDS011;5979;50.800;4.904;2022-09-12T09:36:03;3.47;;;3.28;;
11839;SDS011;5979;50.800;4.904;2022-09-12T09:43:45;2.85;;;2.65;;
11839;SDS011;5979;50.800;4.904;2022-09-12T09:46:10;3.47;;;3.17;;
11839;SDS011;5979;50.800;4.904;2022-09-12T09:48:39;3.72;;;3.40;;
11839;SDS011;5979;50.800;4.904;2022-09-12T09:51:08;3.05;;;2.85;;
11839;SDS011;5979;50.800;4.904;2022-09-12T09:53:40;3.17;;;2.97;;
11839;SDS011;5979;50.800;4.904;2022-09-12T09:56:32;2.85;;;2.75;;
11839;SDS011;5979;50.800;4.904;2022-09-12T09:59:08;2.67;;;2.58;;
11839;SDS011;5979;50.800;4.904;2022-09-12T10:04:19;3.00;;;2.80;;
11839;SDS011;5979;50.800;4.904;2022-09-12T10:06:49;2.30;;;2.20;;
11839;SDS011;5979;50.800;4.904;2022-09-12T10:09:18;2.10;;;2.00;;
11839;SDS011;5979;50.800;4.904;2022-09-12T10:11:44;2.75;;;2.60;;
11839;SDS011;5979;50.800;4.904;2022-09-12T10:14:30;2.50;;;2.40;;
11839;SDS011;5979;50.800;4.904;2022-09-12T10:17:24;2.95;;;2.40;;
11839;SDS011;5979;50.800;4.904;2022-09-12T10:19:52;3.03;;;2.83;;
11839;SDS011;5979;50.800;4.904;2022-09-12T10:22:19;3.03;;;2.83;;
11839;SDS011;5979;50.800;4.904;2022-09-12T10:24:49;4.38;;;3.97;;
11839;SDS011;5979;50.800;4.904;2022-09-12T10:27:18;2.40;;;2.30;;
11839;SDS011;5979;50.800;4.904;2022-09-12T10:29:51;2.95;;;2.75;;
11839;SDS011;5979;50.800;4.904;2022-09-12T10:32:40;3.08;;;2.97;;
11839;SDS011;5979;50.800;4.904;2022-09-12T10:35:07;2.90;;;2.70;;
11839;SDS011;5979;50.800;4.904;2022-09-12T10:40:26;2.65;;;2.47;;
11839;SDS011;5979;50.800;4.904;2022-09-12T10:42:59;2.90;;;2.80;;
11839;SDS011;5979;50.800;4.904;2022-09-12T10:47:57;2.60;;;2.40;;
11839;SDS011;5979;50.800;4.904;2022-09-12T10:53:11;2.05;;;1.95;;
11839;SDS011;5979;50.800;4.904;2022-09-12T10:55:39;2.65;;;2.08;;
11839;SDS011;5979;50.800;4.904;2022-09-12T11:35:01;2.40;;;2.20;;
11839;SDS011;5979;50.800;4.904;2022-09-12T11:38:06;2.33;;;2.22;;
11839;SDS011;5979;50.800;4.904;2022-09-12T11:48:47;2.85;;;2.65;;
11839;SDS011;5979;50.800;4.904;2022-09-12T11:51:34;2.70;;;2.60;;
11839;SDS011;5979;50.800;4.904;2022-09-12T11:54:08;2.63;;;2.35;;
11839;SDS011;5979;50.800;4.904;2022-09-12T11:56:43;2.47;;;2.28;;
11839;SDS011;5979;50.800;4.904;2022-09-12T11:59:14;2.10;;;2.00;;
11839;SDS011;5979;50.800;4.904;2022-09-12T12:01:44;2.25;;;2.00;;
11839;SDS011;5979;50.800;4.904;2022-09-12T12:04:14;1.90;;;1.80;;
11839;SDS011;5979;50.800;4.904;2022-09-12T12:06:48;2.78;;;2.63;;
11839;SDS011;5979;50.800;4.904;2022-09-12T12:09:21;2.30;;;2.20;;
11839;SDS011;5979;50.800;4.904;2022-09-12T12:11:48;4.00;;;2.20;;
11839;SDS011;5979;50.800;4.904;2022-09-12T12:14:35;3.25;;;2.90;;
11839;SDS011;5979;50.800;4.904;2022-09-12T12:17:14;2.30;;;2.20;;
11839;SDS011;5979;50.800;4.904;2022-09-12T12:19:44;1.85;;;1.77;;
11839;SDS011;5979;50.800;4.904;2022-09-12T12:22:19;1.65;;;1.55;;
11839;SDS011;5979;50.800;4.904;2022-09-12T12:25:07;2.05;;;1.60;;
11839;SDS011;5979;50.800;4.904;2022-09-12T12:27:52;1.88;;;1.77;;
11839;SDS011;5979;50.800;4.904;2022-09-12T12:38:02;2.17;;;2.08;;
11839;SDS011;5979;50.800;4.904;2022-09-12T12:40:29;3.05;;;2.13;;
11839;SDS011;5979;50.800;4.904;2022-09-12T12:42:56;2.80;;;2.63;;
11839;SDS011;5979;50.800;4.904;2022-09-12T12:47:59;1.60;;;1.50;;
11839;SDS011;5979;50.800;4.904;2022-09-12T12:50:32;2.20;;;1.60;;
11839;SDS011;5979;50.800;4.904;2022-09-12T12:53:00;1.75;;;1.65;;
11839;SDS011;5979;50.800;4.904;2022-09-12T12:58:51;1.55;;;1.48;;
11839;SDS011;5979;50.800;4.904;2022-09-12T13:01:03;1.40;;;1.40;;
11839;SDS011;5979;50.800;4.904;2022-09-12T13:03:46;1.90;;;1.80;;
11839;SDS011;5979;50.800;4.904;2022-09-12T13:06:21;1.70;;;1.70;;
11839;SDS011;5979;50.800;4.904;2022-09-12T13:08:55;1.60;;;1.55;;
11839;SDS011;5979;50.800;4.904;2022-09-12T13:11:29;1.90;;;1.80;;
11839;SDS011;5979;50.800;4.904;2022-09-12T13:14:03;1.65;;;1.55;;
11839;SDS011;5979;50.800;4.904;2022-09-12T13:16:33;1.52;;;1.52;;
11839;SDS011;5979;50.800;4.904;2022-09-12T13:19:05;1.85;;;1.75;;
11839;SDS011;5979;50.800;4.904;2022-09-12T13:21:37;1.38;;;1.38;;
11839;SDS011;5979;50.800;4.904;2022-09-12T13:24:04;1.63;;;1.63;;
11839;SDS011;5979;50.800;4.904;2022-09-12T13:26:43;1.50;;;1.40;;
11839;SDS011;5979;50.800;4.904;2022-09-12T13:29:15;1.70;;;1.60;;
11839;SDS011;5979;50.800;4.904;2022-09-12T13:31:44;1.98;;;1.58;;
11839;SDS011;5979;50.800;4.904;2022-09-12T13:34:14;1.70;;;1.60;;
11839;SDS011;5979;50.800;4.904;2022-09-12T13:36:50;1.90;;;1.80;;
11839;SDS011;5979;50.800;4.904;2022-09-12T13:39:28;2.75;;;1.80;;
11839;SDS011;5979;50.800;4.904;2022-09-12T13:47:46;1.52;;;1.50;;
11839;SDS011;5979;50.800;4.904;2022-09-12T13:50:28;1.33;;;1.23;;
11839;SDS011;5979;50.800;4.904;2022-09-12T13:52:58;1.70;;;1.60;;
11839;SDS011;5979;50.800;4.904;2022-09-12T13:55:31;1.77;;;1.38;;
11839;SDS011;5979;50.800;4.904;2022-09-12T14:00:29;1.50;;;1.40;;
11839;SDS011;5979;50.800;4.904;2022-09-12T14:02:57;1.85;;;1.38;;
11839;SDS011;5979;50.800;4.904;2022-09-12T14:05:43;1.17;;;1.17;;
11839;SDS011;5979;50.800;4.904;2022-09-12T14:08:19;1.40;;;1.30;;
11839;SDS011;5979;50.800;4.904;2022-09-12T14:10:47;1.20;;;1.10;;
11839;SDS011;5979;50.800;4.904;2022-09-12T14:13:18;1.50;;;1.40;;
11839;SDS011;5979;50.800;4.904;2022-09-12T14:15:48;3.83;;;1.30;;
11839;SDS011;5979;50.800;4.904;2022-09-12T14:18:21;1.13;;;1.13;;
11839;SDS011;5979;50.800;4.904;2022-09-12T14:20:52;1.38;;;1.27;;
11839;SDS011;5979;50.800;4.904;2022-09-12T14:23:28;1.35;;;1.25;;
11839;SDS011;5979;50.800;4.904;2022-09-12T14:25:56;1.20;;;1.20;;
11839;SDS011;5979;50.800;4.904;2022-09-12T14:28:24;1.20;;;1.10;;
11839;SDS011;5979;50.800;4.904;2022-09-12T14:31:00;1.33;;;1.23;;
11839;SDS011;5979;50.800;4.904;2022-09-12T14:33:31;1.55;;;1.25;;
11839;SDS011;5979;50.800;4.904;2022-09-12T14:36:11;2.95;;;1.42;;
11839;SDS011;5979;50.800;4.904;2022-09-12T14:39:36;1.20;;;1.13;;
11839;SDS011;5979;50.800;4.904;2022-09-12T14:42:13;1.60;;;1.00;;
11839;SDS011;5979;50.800;4.904;2022-09-12T14:44:51;1.40;;;1.30;;
11839;SDS011;5979;50.800;4.904;2022-09-12T14:47:23;1.20;;;1.20;;
11839;SDS011;5979;50.800;4.904;2022-09-12T14:49:51;1.10;;;1.10;;
11839;SDS011;5979;50.800;4.904;2022-09-12T14:52:25;1.15;;;1.15;;
11839;SDS011;5979;50.800;4.904;2022-09-12T14:57:43;1.15;;;1.15;;
11839;SDS011;5979;50.800;4.904;2022-09-12T15:02:45;1.13;;;1.13;;
11839;SDS011;5979;50.800;4.904;2022-09-12T15:07:41;1.65;;;1.30;;
11839;SDS011;5979;50.800;4.904;2022-09-12T15:15:33;1.13;;;1.10;;
11839;SDS011;5979;50.800;4.904;2022-09-12T15:18:00;1.10;;;1.10;;
11839;SDS011;5979;50.800;4.904;2022-09-12T15:20:26;1.55;;;0.98;;
11839;SDS011;5979;50.800;4.904;2022-09-12T15:22:52;1.58;;;1.20;;
11839;SDS011;5979;50.800;4.904;2022-09-12T15:25:18;1.83;;;1.40;;
11839;SDS011;5979;50.800;4.904;2022-09-12T15:27:47;1.35;;;1.30;;
11839;SDS011;5979;50.800;4.904;2022-09-12T15:30:16;1.20;;;1.20;;
11839;SDS011;5979;50.800;4.904;2022-09-12T15:32:42;1.20;;;1.20;;
11839;SDS011;5979;50.800;4.904;2022-09-12T15:35:11;1.83;;;1.50;;
11839;SDS011;5979;50.800;4.904;2022-09-12T15:37:46;1.48;;;1.40;;
11839;SDS011;5979;50.800;4.904;2022-09-12T15:40:12;1.20;;;1.20;;
11839;SDS011;5979;50.800;4.904;2022-09-12T15:42:38;1.30;;;1.30;;
11839;SDS011;5979;50.800;4.904;2022-09-12T15:45:48;1.45;;;1.30;;
11839;SDS011;5979;50.800;4.904;2022-09-12T15:47:55;1.90;;;1.80;;
11839;SDS011;5979;50.800;4.904;2022-09-12T15:50:21;1.35;;;1.35;;
11839;SDS011;5979;50.800;4.904;2022-09-12T15:52:47;1.45;;;1.35;;
11839;SDS011;5979;50.800;4.904;2022-09-12T15:55:17;1.35;;;1.35;;
11839;SDS011;5979;50.800;4.904;2022-09-12T15:57:46;2.17;;;1.58;;
11839;SDS011;5979;50.800;4.904;2022-09-12T16:00:12;1.70;;;1.60;;
11839;SDS011;5979;50.800;4.904;2022-09-12T16:02:39;1.63;;;1.52;;
11839;SDS011;5979;50.800;4.904;2022-09-12T16:05:05;1.50;;;1.40;;
11839;SDS011;5979;50.800;4.904;2022-09-12T16:07:35;1.60;;;1.50;;
11839;SDS011;5979;50.800;4.904;2022-09-12T16:10:00;2.50;;;1.60;;
11839;SDS011;5979;50.800;4.904;2022-09-12T16:12:26;1.35;;;1.30;;
11839;SDS011;5979;50.800;4.904;2022-09-12T16:14:52;1.75;;;1.50;;
11839;SDS011;5979;50.800;4.904;2022-09-12T16:17:17;1.35;;;1.35;;
11839;SDS011;5979;50.800;4.904;2022-09-12T16:19:43;1.70;;;1.55;;
11839;SDS011;5979;50.800;4.904;2022-09-12T16:22:08;1.45;;;1.35;;
11839;SDS011;5979;50.800;4.904;2022-09-12T16:24:34;1.90;;;1.58;;
11839;SDS011;5979;50.800;4.904;2022-09-12T16:27:00;1.75;;;1.60;;
11839;SDS011;5979;50.800;4.904;2022-09-12T16:29:25;2.17;;;1.35;;
11839;SDS011;5979;50.800;4.904;2022-09-12T16:31:51;1.33;;;1.33;;
11839;SDS011;5979;50.800;4.904;2022-09-12T16:34:16;1.00;;;1.00;;
11839;SDS011;5979;50.800;4.904;2022-09-12T16:36:42;1.30;;;1.30;;
11839;SDS011;5979;50.800;4.904;2022-09-12T16:39:09;2.03;;;1.80;;
11839;SDS011;5979;50.800;4.904;2022-09-12T16:41:35;1.60;;;1.60;;
11839;SDS011;5979;50.800;4.904;2022-09-12T16:44:00;1.60;;;1.40;;
11839;SDS011;5979;50.800;4.904;2022-09-12T16:46:26;1.00;;;1.00;;
11839;SDS011;5979;50.800;4.904;2022-09-12T16:48:56;1.30;;;1.30;;
11839;SDS011;5979;50.800;4.904;2022-09-12T16:51:26;1.60;;;1.50;;
11839;SDS011;5979;50.800;4.904;2022-09-12T16:53:55;1.70;;;1.60;;
11839;SDS011;5979;50.800;4.904;2022-09-12T16:56:21;3.20;;;1.30;;
11839;SDS011;5979;50.800;4.904;2022-09-12T16:58:47;1.60;;;1.50;;
11839;SDS011;5979;50.800;4.904;2022-09-12T17:01:17;1.27;;;1.20;;
11839;SDS011;5979;50.800;4.904;2022-09-12T17:03:44;1.25;;;1.25;;
11839;SDS011;5979;50.800;4.904;2022-09-12T17:11:06;1.23;;;1.20;;
11839;SDS011;5979;50.800;4.904;2022-09-12T17:13:34;1.70;;;1.60;;
11839;SDS011;5979;50.800;4.904;2022-09-12T17:16:04;1.52;;;1.42;;
11839;SDS011;5979;50.800;4.904;2022-09-12T17:18:31;1.08;;;1.08;;
11839;SDS011;5979;50.800;4.904;2022-09-12T17:20:57;1.35;;;1.35;;
11839;SDS011;5979;50.800;4.904;2022-09-12T17:23:23;2.35;;;1.52;;
11839;SDS011;5979;50.800;4.904;2022-09-12T17:25:49;1.48;;;1.40;;
11839;SDS011;5979;50.800;4.904;2022-09-12T17:28:19;1.30;;;1.30;;
11839;SDS011;5979;50.800;4.904;2022-09-12T17:30:45;1.05;;;1.05;;
11839;SDS011;5979;50.800;4.904;2022-09-12T17:33:11;1.20;;;1.20;;
11839;SDS011;5979;50.800;4.904;2022-09-12T17:35:38;1.75;;;1.65;;
11839;SDS011;5979;50.800;4.904;2022-09-12T17:38:06;1.35;;;1.27;;
11839;SDS011;5979;50.800;4.904;2022-09-12T17:40:33;1.10;;;1.10;;
11839;SDS011;5979;50.800;4.904;2022-09-12T17:42:59;2.47;;;1.35;;
11839;SDS011;5979;50.800;4.904;2022-09-12T17:45:26;1.60;;;1.50;;
11839;SDS011;5979;50.800;4.904;2022-09-12T17:47:52;1.60;;;1.50;;
11839;SDS011;5979;50.800;4.904;2022-09-12T17:50:18;1.48;;;1.40;;
11839;SDS011;5979;50.800;4.904;2022-09-12T17:52:44;1.40;;;1.40;;
11839;SDS011;5979;50.800;4.904;2022-09-12T17:55:10;1.50;;;1.40;;
11839;SDS011;5979;50.800;4.904;2022-09-12T17:57:36;1.55;;;1.48;;
11839;SDS011;5979;50.800;4.904;2022-09-12T18:00:03;3.08;;;1.70;;